Time;durP1;ratioP1;P1;durP2;ratioP2;P2;SDS_P1;SDS_P2;PMS_P1;PMS_P2;Temp;Humidity;BMP_temperature;BMP_pressure;BME280_temperature;BME280_humidity;BME280_pressure;Samples;Min_cycle;Max_cycle;Signal;HPM_P1;HPM_P2
2021/10/09 00:01:26;;;;;;;1.73;1.23;;;;;;;;;;4448264;32;20263;-51
2021/10/09 00:03:53;;;;;;;4.50;1.50;;;;;;;;;;4449530;32;20303;-51
2021/10/09 00:06:19;;;;;;;1.70;1.10;;;;;;;;;;4449563;32;20620;-51
2021/10/09 00:08:45;;;;;;;1.20;0.93;;;;;;;;;;4449895;32;20259;-51
2021/10/09 00:11:17;;;;;;;1.10;1.00;;;;;;;;;;4448320;32;20688;-51
2021/10/09 00:13:43;;;;;;;2.30;1.10;;;;;;;;;;4449973;32;20223;-52
2021/10/09 00:16:08;;;;;;;5.00;1.47;;;;;;;;;;4449950;32;20248;-51
2021/10/09 00:18:34;;;;;;;2.17;1.60;;;;;;;;;;4450095;32;20680;-51
2021/10/09 00:20:59;;;;;;;4.50;2.03;;;;;;;;;;4449700;32;20275;-51
2021/10/09 00:23:24;;;;;;;2.17;1.50;;;;;;;;;;4449419;32;20601;-51
2021/10/09 00:25:50;;;;;;;3.17;2.00;;;;;;;;;;4449695;32;20590;-51
2021/10/09 00:28:15;;;;;;;2.47;1.67;;;;;;;;;;4449729;32;20294;-51
2021/10/09 00:30:41;;;;;;;2.43;1.63;;;;;;;;;;4449954;32;20212;-51
2021/10/09 00:33:06;;;;;;;2.77;1.97;;;;;;;;;;4449329;32;20643;-51
2021/10/09 00:35:32;;;;;;;5.43;1.77;;;;;;;;;;4448249;32;20599;-52
2021/10/09 00:37:57;;;;;;;3.23;1.47;;;;;;;;;;4449371;32;20579;-51
2021/10/09 00:40:23;;;;;;;2.27;1.57;;;;;;;;;;4449310;32;20299;-51
2021/10/09 00:42:48;;;;;;;5.10;2.37;;;;;;;;;;4449122;32;20418;-51
2021/10/09 00:45:14;;;;;;;4.50;2.93;;;;;;;;;;4448765;32;20280;-52
2021/10/09 00:47:39;;;;;;;4.17;2.10;;;;;;;;;;4449197;32;20259;-51
2021/10/09 00:50:05;;;;;;;1.70;1.33;;;;;;;;;;4449186;32;20254;-51
2021/10/09 00:52:34;;;;;;;1.47;1.20;;;;;;;;;;4447955;32;20250;-51
2021/10/09 00:55:03;;;;;;;1.00;0.90;;;;;;;;;;4449434;32;20287;-51
2021/10/09 00:57:29;;;;;;;1.80;1.40;;;;;;;;;;4448764;32;20362;-51
2021/10/09 00:59:59;;;;;;;1.20;1.00;;;;;;;;;;4449336;32;20409;-51
2021/10/09 01:02:24;;;;;;;2.63;1.37;;;;;;;;;;4448314;32;20294;-50
2021/10/09 01:04:51;;;;;;;2.23;1.17;;;;;;;;;;4449037;32;20301;-51
2021/10/09 01:07:18;;;;;;;1.50;1.20;;;;;;;;;;4448765;32;20592;-51
2021/10/09 01:09:45;;;;;;;2.50;1.40;;;;;;;;;;4449151;32;20224;-51
2021/10/09 01:12:14;;;;;;;1.87;1.70;;;;;;;;;;4448802;32;20216;-51
2021/10/09 01:14:41;;;;;;;2.17;1.83;;;;;;;;;;4448932;32;20320;-51
2021/10/09 01:17:14;;;;;;;2.23;1.20;;;;;;;;;;4448718;32;20217;-50
2021/10/09 01:19:41;;;;;;;2.07;1.37;;;;;;;;;;4448498;32;20228;-51
2021/10/09 01:22:06;;;;;;;1.93;1.10;;;;;;;;;;4449056;32;20196;-51
2021/10/09 01:24:32;;;;;;;1.27;0.90;;;;;;;;;;4449086;32;20224;-51
2021/10/09 01:26:58;;;;;;;1.27;0.90;;;;;;;;;;4449025;32;20648;-51
2021/10/09 01:29:24;;;;;;;1.40;1.30;;;;;;;;;;4448889;32;20767;-51
2021/10/09 01:31:49;;;;;;;2.93;1.10;;;;;;;;;;4448969;32;20205;-51
2021/10/09 01:34:23;;;;;;;1.83;1.17;;;;;;;;;;4448935;32;20307;-52
2021/10/09 01:36:48;;;;;;;3.03;1.20;;;;;;;;;;4448413;32;20200;-52
2021/10/09 01:39:15;;;;;;;3.83;1.57;;;;;;;;;;4448546;32;20324;-52
2021/10/09 01:41:43;;;;;;;1.90;1.13;;;;;;;;;;4448606;32;20212;-51
2021/10/09 01:44:09;;;;;;;2.20;1.40;;;;;;;;;;4447504;32;20209;-51
2021/10/09 01:46:36;;;;;;;3.33;1.57;;;;;;;;;;4448475;32;20296;-51
2021/10/09 01:49:02;;;;;;;1.10;1.00;;;;;;;;;;4448346;32;20717;-51
2021/10/09 01:51:29;;;;;;;1.47;0.87;;;;;;;;;;4448556;32;20686;-51
2021/10/09 01:53:55;;;;;;;4.33;1.23;;;;;;;;;;4448279;32;20304;-51
2021/10/09 01:56:20;;;;;;;1.47;1.10;;;;;;;;;;4449249;32;20205;-51
2021/10/09 01:58:45;;;;;;;2.43;1.40;;;;;;;;;;4451975;32;20263;-51
2021/10/09 02:01:11;;;;;;;2.40;1.53;;;;;;;;;;4448928;32;20330;-51
2021/10/09 02:03:37;;;;;;;3.07;1.37;;;;;;;;;;4436763;32;20317;-51
2021/10/09 02:06:02;;;;;;;3.07;1.67;;;;;;;;;;4436720;32;20279;-50
2021/10/09 02:08:28;;;;;;;2.50;1.93;;;;;;;;;;4436381;32;20310;-52
2021/10/09 02:11:08;;;;;;;3.87;2.30;;;;;;;;;;4436116;32;20426;-51
2021/10/09 02:13:46;;;;;;;5.37;2.37;;;;;;;;;;4436393;32;20648;-51
2021/10/09 02:24:50;;;;;;;1.87;1.00;;;;;;;;;;4466628;32;20296;-50
2021/10/09 02:27:12;;;;;;;0.70;0.70;;;;;;;;;;4466243;32;20259;-51
2021/10/09 02:29:38;;;;;;;1.07;0.97;;;;;;;;;;4466827;32;20243;-51
2021/10/09 02:32:04;;;;;;;0.97;0.80;;;;;;;;;;4466742;32;20360;-50
2021/10/09 02:34:29;;;;;;;1.73;1.20;;;;;;;;;;4452919;32;20552;-52
2021/10/09 02:36:55;;;;;;;1.27;0.80;;;;;;;;;;4451275;32;20240;-51
2021/10/09 02:39:20;;;;;;;1.00;0.90;;;;;;;;;;4450768;32;20252;-51
2021/10/09 02:41:45;;;;;;;3.13;0.90;;;;;;;;;;4451250;32;20602;-50
2021/10/09 02:44:11;;;;;;;1.03;0.80;;;;;;;;;;4450719;32;20291;-51
2021/10/09 02:46:37;;;;;;;1.20;0.97;;;;;;;;;;4450624;32;20277;-52
2021/10/09 02:49:03;;;;;;;1.03;0.60;;;;;;;;;;4450710;32;20726;-51
2021/10/09 02:51:28;;;;;;;0.90;0.90;;;;;;;;;;4450586;32;20314;-51
2021/10/09 02:53:53;;;;;;;0.93;0.87;;;;;;;;;;4450626;32;20304;-52
2021/10/09 02:56:19;;;;;;;0.93;0.83;;;;;;;;;;4450546;32;20292;-52
2021/10/09 02:58:44;;;;;;;2.10;1.10;;;;;;;;;;4450542;32;20339;-51
2021/10/09 03:01:10;;;;;;;1.33;1.00;;;;;;;;;;4450300;32;20308;-51
2021/10/09 03:03:35;;;;;;;1.37;0.90;;;;;;;;;;4450860;32;20287;-51
2021/10/09 03:06:00;;;;;;;0.70;0.70;;;;;;;;;;4450656;32;20228;-50
2021/10/09 03:08:26;;;;;;;1.20;0.90;;;;;;;;;;4449798;32;20288;-50
2021/10/09 03:10:51;;;;;;;2.00;0.70;;;;;;;;;;4449790;32;20266;-50
2021/10/09 03:13:17;;;;;;;0.97;0.80;;;;;;;;;;4450222;32;20366;-50
2021/10/09 03:15:42;;;;;;;1.10;0.90;;;;;;;;;;4450210;32;20295;-50
2021/10/09 03:18:08;;;;;;;2.90;0.90;;;;;;;;;;4450535;32;20663;-51
2021/10/09 03:20:33;;;;;;;0.60;0.60;;;;;;;;;;4450024;32;20742;-51
2021/10/09 03:22:58;;;;;;;0.60;0.60;;;;;;;;;;4450381;32;20370;-50
2021/10/09 03:25:24;;;;;;;0.83;0.80;;;;;;;;;;4449898;32;20694;-50
2021/10/09 03:27:49;;;;;;;3.93;1.10;;;;;;;;;;4450114;32;20344;-50
2021/10/09 03:30:15;;;;;;;0.80;0.80;;;;;;;;;;4450283;32;20342;-50
2021/10/09 03:32:40;;;;;;;1.27;0.90;;;;;;;;;;4449661;32;20208;-50
2021/10/09 03:35:07;;;;;;;2.70;1.13;;;;;;;;;;4450272;32;20756;-50
2021/10/09 03:37:33;;;;;;;1.57;1.10;;;;;;;;;;4450047;32;20647;-50
2021/10/09 03:40:02;;;;;;;7.80;1.07;;;;;;;;;;4449940;32;20236;-51
2021/10/09 03:42:36;;;;;;;4.83;1.00;;;;;;;;;;4449753;32;20636;-51
2021/10/09 03:45:13;;;;;;;1.00;0.90;;;;;;;;;;4434626;32;20296;-50
2021/10/09 03:52:52;;;;;;;1.23;0.97;;;;;;;;;;4449539;32;20253;-51
2021/10/09 03:55:19;;;;;;;1.10;1.00;;;;;;;;;;4448391;32;20256;-50
2021/10/09 03:57:45;;;;;;;4.83;1.17;;;;;;;;;;4449975;32;20213;-50
2021/10/09 04:00:13;;;;;;;2.30;1.23;;;;;;;;;;4448105;32;20749;-50
2021/10/09 04:02:38;;;;;;;1.10;0.83;;;;;;;;;;4437107;32;20252;-50
2021/10/09 04:05:04;;;;;;;1.50;1.07;;;;;;;;;;4434183;32;20708;-51
2021/10/09 04:07:30;;;;;;;3.70;0.97;;;;;;;;;;4448910;32;20196;-51
2021/10/09 04:09:55;;;;;;;1.23;1.03;;;;;;;;;;4448108;32;20704;-51
2021/10/09 04:12:21;;;;;;;2.10;0.90;;;;;;;;;;4449043;32;20241;-51
2021/10/09 04:14:47;;;;;;;1.80;1.20;;;;;;;;;;4449272;32;20600;-51
2021/10/09 04:17:12;;;;;;;1.60;1.00;;;;;;;;;;4449053;32;20265;-51
2021/10/09 04:19:38;;;;;;;1.00;0.90;;;;;;;;;;4449195;32;20641;-51
2021/10/09 04:22:04;;;;;;;0.97;0.93;;;;;;;;;;4449282;32;20650;-51
2021/10/09 04:24:30;;;;;;;1.37;0.90;;;;;;;;;;4448979;32;20239;-51
2021/10/09 04:26:55;;;;;;;0.93;0.87;;;;;;;;;;4448896;32;20289;-51
2021/10/09 04:29:21;;;;;;;1.13;0.90;;;;;;;;;;4449123;32;20295;-51
2021/10/09 04:31:48;;;;;;;1.67;1.17;;;;;;;;;;4449245;32;20351;-51
2021/10/09 04:34:13;;;;;;;1.10;1.00;;;;;;;;;;4448838;32;20370;-53
2021/10/09 04:36:39;;;;;;;0.80;0.80;;;;;;;;;;4448662;32;20205;-51
2021/10/09 04:39:04;;;;;;;0.97;0.87;;;;;;;;;;4448597;32;20671;-51
2021/10/09 04:41:30;;;;;;;1.13;1.00;;;;;;;;;;4448778;32;20255;-51
2021/10/09 04:43:55;;;;;;;0.97;0.97;;;;;;;;;;4448420;32;20313;-51
2021/10/09 04:46:21;;;;;;;3.33;1.30;;;;;;;;;;4448492;32;20264;-51
2021/10/09 04:48:47;;;;;;;1.57;1.10;;;;;;;;;;4448645;32;20305;-53
2021/10/09 04:51:12;;;;;;;5.63;1.80;;;;;;;;;;4448535;32;20225;-51
2021/10/09 04:53:37;;;;;;;1.90;1.07;;;;;;;;;;4448329;32;20275;-51
2021/10/09 04:56:03;;;;;;;2.47;1.33;;;;;;;;;;4448752;32;20354;-51
2021/10/09 04:58:29;;;;;;;1.73;1.43;;;;;;;;;;4448723;32;20212;-51
2021/10/09 05:00:54;;;;;;;1.77;1.50;;;;;;;;;;4447814;32;20335;-51
2021/10/09 05:03:20;;;;;;;1.20;1.00;;;;;;;;;;4448344;32;20287;-51
2021/10/09 05:05:45;;;;;;;1.43;1.13;;;;;;;;;;4448512;32;20217;-51
2021/10/09 05:08:11;;;;;;;1.30;1.20;;;;;;;;;;4448206;32;20303;-53
2021/10/09 05:10:38;;;;;;;1.33;1.10;;;;;;;;;;4448426;32;20249;-51
2021/10/09 05:13:04;;;;;;;1.40;1.20;;;;;;;;;;4448443;32;20209;-50
2021/10/09 05:15:29;;;;;;;1.80;1.20;;;;;;;;;;4448238;32;20248;-50
2021/10/09 05:17:55;;;;;;;3.10;1.63;;;;;;;;;;4448237;32;20748;-50
2021/10/09 05:20:20;;;;;;;3.40;2.03;;;;;;;;;;4448123;32;20236;-50
2021/10/09 05:22:46;;;;;;;3.83;2.13;;;;;;;;;;4448028;32;20200;-50
2021/10/09 05:25:12;;;;;;;4.13;1.87;;;;;;;;;;4447907;32;20255;-50
2021/10/09 05:27:39;;;;;;;1.90;1.50;;;;;;;;;;4447939;32;20315;-50
2021/10/09 05:30:12;;;;;;;3.17;1.60;;;;;;;;;;4448063;32;20248;-50
2021/10/09 05:32:47;;;;;;;3.90;2.50;;;;;;;;;;4447765;32;20204;-51
2021/10/09 05:35:13;;;;;;;2.90;2.07;;;;;;;;;;4448388;32;20277;-51
2021/10/09 05:37:40;;;;;;;2.57;1.83;;;;;;;;;;4448144;32;20637;-51
2021/10/09 05:40:06;;;;;;;3.00;2.13;;;;;;;;;;4447984;32;20344;-50
2021/10/09 05:42:31;;;;;;;7.87;4.37;;;;;;;;;;4447774;32;20306;-50
2021/10/09 05:44:57;;;;;;;9.77;5.77;;;;;;;;;;4447714;32;20689;-50
2021/10/09 05:47:22;;;;;;;7.53;4.97;;;;;;;;;;4447744;32;20284;-51
2021/10/09 05:49:53;;;;;;;9.13;5.57;;;;;;;;;;4446929;32;20588;-50
2021/10/09 05:52:45;;;;;;;9.13;5.00;;;;;;;;;;4443795;32;20269;-51
2021/10/09 06:00:55;;;;;;;5.33;2.93;;;;;;;;;;4447401;32;20255;-50
2021/10/09 06:44:37;;;;;;;1.40;1.30;;;;;;;;;;4448971;32;20270;-51
2021/10/09 06:47:22;;;;;;;2.70;2.10;;;;;;;;;;4450367;32;20549;-50
2021/10/09 06:50:14;;;;;;;5.43;2.93;;;;;;;;;;4450649;32;20319;-51
2021/10/09 07:00:55;;;;;;;7.27;4.00;;;;;;;;;;4449489;32;20274;-50
2021/10/09 07:03:21;;;;;;;5.90;3.20;;;;;;;;;;4447953;32;20312;-50
2021/10/09 07:05:48;;;;;;;2.33;2.00;;;;;;;;;;4448213;32;20265;-50
2021/10/09 07:08:13;;;;;;;1.93;1.57;;;;;;;;;;4448320;32;20312;-52
2021/10/09 07:10:42;;;;;;;4.93;3.53;;;;;;;;;;4448487;32;20225;-50
2021/10/09 07:13:08;;;;;;;6.30;4.10;;;;;;;;;;4448312;32;20690;-50
2021/10/09 07:15:37;;;;;;;2.87;1.70;;;;;;;;;;4448704;32;20400;-51
2021/10/09 07:18:04;;;;;;;2.10;1.20;;;;;;;;;;4450024;32;20196;-50
2021/10/09 07:20:29;;;;;;;2.53;1.30;;;;;;;;;;4449884;32;20279;-50
2021/10/09 07:22:55;;;;;;;2.13;1.40;;;;;;;;;;4450253;32;20291;-52
2021/10/09 07:25:21;;;;;;;2.10;1.87;;;;;;;;;;4450285;32;20212;-50
2021/10/09 07:27:47;;;;;;;3.60;2.33;;;;;;;;;;4450144;32;20587;-50
2021/10/09 07:30:13;;;;;;;1.63;1.47;;;;;;;;;;4449771;32;20220;-51
2021/10/09 07:32:39;;;;;;;2.67;1.77;;;;;;;;;;4449567;32;20676;-51
2021/10/09 07:35:04;;;;;;;2.50;1.83;;;;;;;;;;4435701;32;20228;-50
2021/10/09 07:37:30;;;;;;;1.67;1.57;;;;;;;;;;4449359;32;20239;-51
2021/10/09 07:39:56;;;;;;;7.23;1.60;;;;;;;;;;4449457;32;20563;-51
2021/10/09 07:42:21;;;;;;;3.87;2.20;;;;;;;;;;4449345;32;20192;-51
2021/10/09 07:44:49;;;;;;;1.60;1.20;;;;;;;;;;4449150;32;20213;-51
2021/10/09 07:47:15;;;;;;;1.60;1.50;;;;;;;;;;4449309;32;20546;-51
2021/10/09 07:49:41;;;;;;;7.87;2.50;;;;;;;;;;4449394;32;20273;-51
2021/10/09 07:52:07;;;;;;;3.37;2.23;;;;;;;;;;4448929;32;20211;-50
2021/10/09 07:54:32;;;;;;;2.63;2.30;;;;;;;;;;4448969;32;20264;-50
2021/10/09 07:56:58;;;;;;;2.37;1.90;;;;;;;;;;4449179;32;20642;-50
2021/10/09 07:59:23;;;;;;;9.13;1.60;;;;;;;;;;4449171;32;20398;-50
2021/10/09 08:01:49;;;;;;;1.63;1.43;;;;;;;;;;4441935;32;20297;-51
2021/10/09 08:04:16;;;;;;;1.63;1.30;;;;;;;;;;4433619;32;20271;-50
2021/10/09 08:06:42;;;;;;;2.23;1.30;;;;;;;;;;4434006;32;20602;-50
2021/10/09 08:09:08;;;;;;;3.33;1.23;;;;;;;;;;4433634;32;20675;-50
2021/10/09 08:11:33;;;;;;;2.83;1.03;;;;;;;;;;4433726;32;20410;-50
2021/10/09 08:13:59;;;;;;;2.00;1.60;;;;;;;;;;4433390;32;20350;-50
2021/10/09 08:16:24;;;;;;;1.90;1.30;;;;;;;;;;4433281;32;20240;-50
2021/10/09 08:18:50;;;;;;;1.37;1.27;;;;;;;;;;4435578;32;20318;-51
2021/10/09 08:21:17;;;;;;;1.77;1.30;;;;;;;;;;4433337;32;20695;-50
2021/10/09 08:23:52;;;;;;;2.17;1.60;;;;;;;;;;4433582;32;20197;-52
2021/10/09 08:39:44;;;;;;;1.27;1.10;;;;;;;;;;4448749;32;20519;-51
2021/10/09 08:42:10;;;;;;;2.30;1.67;;;;;;;;;;4448991;32;20196;-51
2021/10/09 08:44:38;;;;;;;1.10;1.00;;;;;;;;;;4448706;32;20526;-51
2021/10/09 08:47:04;;;;;;;1.30;1.17;;;;;;;;;;4437510;32;20336;-50
2021/10/09 08:49:32;;;;;;;1.43;1.20;;;;;;;;;;4448371;32;20308;-50
2021/10/09 08:51:58;;;;;;;2.50;1.50;;;;;;;;;;4448718;32;20551;-51
2021/10/09 08:54:33;;;;;;;3.37;1.83;;;;;;;;;;4448648;32;20577;-51
2021/10/09 08:57:10;;;;;;;3.23;1.93;;;;;;;;;;4448812;32;20290;-51
2021/10/09 08:59:46;;;;;;;2.27;1.63;;;;;;;;;;4449030;32;20235;-51
2021/10/09 09:02:20;;;;;;;5.23;1.20;;;;;;;;;;4448456;32;20269;-51
2021/10/09 09:32:25;;;;;;;2.00;1.73;;;;;;;;;;4448845;32;20763;-51
2021/10/09 09:40:06;;;;;;;4.27;2.30;;;;;;;;;;4433509;32;20427;-51
2021/10/09 09:42:32;;;;;;;3.00;2.40;;;;;;;;;;4433559;32;20229;-52
2021/10/09 09:45:00;;;;;;;4.13;2.67;;;;;;;;;;4448523;32;20301;-52
2021/10/09 09:47:34;;;;;;;2.67;2.03;;;;;;;;;;4448798;32;20213;-51
2021/10/09 09:50:02;;;;;;;3.60;2.43;;;;;;;;;;4448903;32;20232;-52
2021/10/09 09:52:28;;;;;;;4.47;2.33;;;;;;;;;;4447393;32;20678;-51
2021/10/09 09:54:55;;;;;;;1.60;1.33;;;;;;;;;;4448864;32;20315;-53
2021/10/09 09:57:21;;;;;;;3.80;2.47;;;;;;;;;;4448478;32;20258;-51
2021/10/09 09:59:47;;;;;;;2.70;2.23;;;;;;;;;;4448433;32;20647;-51
2021/10/09 10:02:15;;;;;;;1.50;1.30;;;;;;;;;;4439094;32;20224;-51
2021/10/09 10:04:41;;;;;;;4.00;2.23;;;;;;;;;;4433137;32;20217;-52
2021/10/09 10:07:07;;;;;;;2.80;2.07;;;;;;;;;;4433117;32;20197;-51
2021/10/09 10:09:32;;;;;;;9.63;6.00;;;;;;;;;;4433182;32;20301;-51
2021/10/09 10:12:00;;;;;;;8.17;3.70;;;;;;;;;;4433307;32;20227;-52
2021/10/09 10:14:31;;;;;;;3.40;1.77;;;;;;;;;;4432942;32;20303;-51
2021/10/09 10:16:57;;;;;;;2.30;1.77;;;;;;;;;;4433364;32;20232;-51
2021/10/09 10:19:50;;;;;;;2.10;1.40;;;;;;;;;;4436007;32;20221;-51
2021/10/09 10:22:17;;;;;;;3.00;1.90;;;;;;;;;;4434565;32;20266;-51
2021/10/09 10:24:48;;;;;;;4.00;2.27;;;;;;;;;;4436216;32;20285;-51
2021/10/09 10:27:31;;;;;;;8.30;3.83;;;;;;;;;;4435918;32;20272;-51
2021/10/09 10:30:15;;;;;;;6.80;3.17;;;;;;;;;;4435795;32;20225;-52
2021/10/09 10:33:01;;;;;;;7.20;3.73;;;;;;;;;;4437790;32;20228;-51
2021/10/09 10:35:29;;;;;;;6.37;2.70;;;;;;;;;;4443475;32;20231;-50
2021/10/09 10:38:25;;;;;;;4.10;2.40;;;;;;;;;;4451441;32;20287;-51
2021/10/09 10:40:58;;;;;;;4.50;2.30;;;;;;;;;;4450792;32;20678;-52
2021/10/09 10:43:46;;;;;;;5.13;2.77;;;;;;;;;;4450917;32;20809;-51
2021/10/09 10:49:26;;;;;;;3.43;2.43;;;;;;;;;;4451265;32;20793;-52
2021/10/09 10:52:07;;;;;;;3.00;1.77;;;;;;;;;;4451060;32;20684;-51
2021/10/09 10:54:39;;;;;;;1.50;1.37;;;;;;;;;;4451145;32;20369;-51
2021/10/09 10:57:07;;;;;;;4.27;1.80;;;;;;;;;;4451456;32;20712;-51
2021/10/09 10:59:35;;;;;;;1.40;1.30;;;;;;;;;;4449701;32;20649;-51
2021/10/09 11:02:10;;;;;;;1.40;1.10;;;;;;;;;;4451211;32;20235;-51
2021/10/09 11:04:41;;;;;;;1.50;1.07;;;;;;;;;;4451220;32;20240;-51
2021/10/09 11:07:07;;;;;;;3.90;2.50;;;;;;;;;;4450893;32;20306;-52
2021/10/09 11:09:33;;;;;;;6.93;4.07;;;;;;;;;;4451312;32;20252;-50
2021/10/09 11:11:59;;;;;;;2.53;1.90;;;;;;;;;;4450956;32;20251;-52
2021/10/09 11:14:29;;;;;;;1.73;1.40;;;;;;;;;;4450827;32;20854;-51
2021/10/09 11:17:04;;;;;;;3.37;2.43;;;;;;;;;;4450004;32;20850;-52
2021/10/09 11:19:42;;;;;;;5.40;4.10;;;;;;;;;;4450270;32;20250;-51
2021/10/09 11:22:08;;;;;;;4.87;3.53;;;;;;;;;;4451128;32;20363;-52
2021/10/09 11:24:48;;;;;;;3.67;2.50;;;;;;;;;;4451242;32;20315;-51
2021/10/09 11:27:15;;;;;;;1.93;1.53;;;;;;;;;;4450307;32;20230;-51
2021/10/09 11:29:42;;;;;;;1.30;1.20;;;;;;;;;;4449512;32;20229;-51
2021/10/09 11:32:11;;;;;;;3.77;1.50;;;;;;;;;;4450967;32;20271;-52
2021/10/09 11:34:50;;;;;;;2.27;1.40;;;;;;;;;;4450994;32;20330;-51
2021/10/09 11:37:17;;;;;;;1.93;1.10;;;;;;;;;;4450270;32;20242;-51
2021/10/09 11:39:51;;;;;;;2.87;2.07;;;;;;;;;;4450482;32;20293;-51
2021/10/09 11:42:25;;;;;;;4.57;2.33;;;;;;;;;;4450468;32;20196;-51
2021/10/09 11:45:08;;;;;;;4.53;2.97;;;;;;;;;;4450351;32;20555;-51
2021/10/09 11:53:41;;;;;;;4.80;2.07;;;;;;;;;;4450051;32;20254;-52
2021/10/09 11:56:08;;;;;;;5.10;2.33;;;;;;;;;;4449436;32;20228;-51
2021/10/09 11:59:06;;;;;;;4.40;2.80;;;;;;;;;;4450689;32;20303;-51
2021/10/09 12:01:40;;;;;;;6.50;3.47;;;;;;;;;;4432563;32;20639;-51
2021/10/09 12:04:20;;;;;;;14.40;5.60;;;;;;;;;;4434936;32;20544;-51
2021/10/09 12:06:47;;;;;;;7.00;4.13;;;;;;;;;;4434555;32;20197;-51
2021/10/09 12:09:14;;;;;;;11.40;5.07;;;;;;;;;;4434750;32;20205;-51
2021/10/09 12:11:40;;;;;;;6.63;4.30;;;;;;;;;;4435011;32;20218;-51
2021/10/09 12:14:10;;;;;;;8.30;5.87;;;;;;;;;;4448664;32;20364;-52
2021/10/09 12:16:41;;;;;;;5.93;4.43;;;;;;;;;;4450217;32;20279;-51
2021/10/09 12:19:15;;;;;;;4.30;3.30;;;;;;;;;;4450305;32;20208;-51
2021/10/09 12:21:49;;;;;;;4.93;3.00;;;;;;;;;;4449511;32;20273;-51
2021/10/09 12:24:20;;;;;;;7.20;3.70;;;;;;;;;;4450113;32;20262;-51
2021/10/09 12:27:07;;;;;;;11.07;3.87;;;;;;;;;;4450263;32;20704;-51
2021/10/09 12:29:35;;;;;;;7.60;4.60;;;;;;;;;;4449551;32;20359;-51
2021/10/09 12:32:14;;;;;;;4.23;2.63;;;;;;;;;;4449409;32;20233;-51
2021/10/09 12:34:40;;;;;;;5.67;4.53;;;;;;;;;;4454801;32;20244;-51
2021/10/09 12:37:19;;;;;;;9.50;6.73;;;;;;;;;;4465098;32;20226;-51
2021/10/09 12:39:46;;;;;;;6.97;5.50;;;;;;;;;;4465622;32;20660;-51
2021/10/09 12:42:14;;;;;;;12.77;7.43;;;;;;;;;;4464477;32;20605;-51
2021/10/09 12:44:40;;;;;;;21.43;11.70;;;;;;;;;;4451447;32;20217;-51
2021/10/09 12:47:06;;;;;;;24.27;13.33;;;;;;;;;;4449391;32;20224;-50
2021/10/09 12:49:31;;;;;;;25.67;12.63;;;;;;;;;;4449753;32;20682;-50
2021/10/09 12:51:56;;;;;;;29.17;14.07;;;;;;;;;;4448940;32;20213;-51
2021/10/09 12:54:24;;;;;;;23.93;12.17;;;;;;;;;;4449451;32;20572;-51
2021/10/09 12:56:50;;;;;;;20.87;10.87;;;;;;;;;;4449770;32;20765;-51
2021/10/09 12:59:17;;;;;;;20.03;10.43;;;;;;;;;;4449076;32;20247;-51
2021/10/09 13:01:43;;;;;;;17.83;9.70;;;;;;;;;;4448782;32;20629;-51
2021/10/09 13:04:08;;;;;;;17.70;9.23;;;;;;;;;;4449631;32;20322;-51
2021/10/09 13:06:34;;;;;;;12.67;7.93;;;;;;;;;;4449165;32;20287;-51
2021/10/09 13:09:00;;;;;;;14.43;7.53;;;;;;;;;;4449365;32;20301;-51
2021/10/09 13:11:32;;;;;;;12.60;7.30;;;;;;;;;;4449395;32;20261;-51
2021/10/09 13:13:57;;;;;;;10.07;5.13;;;;;;;;;;4449366;32;20188;-51
2021/10/09 13:16:23;;;;;;;6.03;3.73;;;;;;;;;;4449189;32;20201;-51
2021/10/09 13:18:48;;;;;;;6.27;3.67;;;;;;;;;;4449093;32;20295;-51
2021/10/09 13:21:14;;;;;;;3.97;2.80;;;;;;;;;;4448733;32;20337;-52
2021/10/09 13:23:40;;;;;;;9.23;3.50;;;;;;;;;;4448998;32;20291;-52
2021/10/09 13:26:05;;;;;;;4.87;3.00;;;;;;;;;;4449600;32;20279;-51
2021/10/09 13:28:31;;;;;;;5.00;2.93;;;;;;;;;;4449249;32;20770;-51
2021/10/09 13:30:57;;;;;;;6.03;3.43;;;;;;;;;;4449288;32;20454;-51
2021/10/09 13:33:23;;;;;;;10.77;5.43;;;;;;;;;;4444673;32;20379;-51
2021/10/09 13:35:48;;;;;;;6.50;4.00;;;;;;;;;;4449569;32;20224;-51
2021/10/09 13:38:15;;;;;;;6.83;4.20;;;;;;;;;;4449355;32;20311;-52
2021/10/09 13:40:41;;;;;;;6.27;4.07;;;;;;;;;;4449520;32;20233;-51
2021/10/09 13:43:11;;;;;;;5.80;3.80;;;;;;;;;;4449182;32;20272;-52
2021/10/09 13:45:40;;;;;;;8.30;4.23;;;;;;;;;;4449455;32;20229;-51
2021/10/09 13:48:06;;;;;;;8.73;4.90;;;;;;;;;;4449355;32;20188;-51
2021/10/09 13:50:36;;;;;;;16.20;6.40;;;;;;;;;;4449092;32;20747;-51
2021/10/09 13:53:02;;;;;;;11.97;6.23;;;;;;;;;;4449197;32;20204;-51
2021/10/09 13:55:28;;;;;;;7.33;4.40;;;;;;;;;;4449535;32;20336;-51
2021/10/09 13:57:53;;;;;;;6.43;3.93;;;;;;;;;;4449407;32;20224;-50
2021/10/09 14:00:18;;;;;;;10.57;5.80;;;;;;;;;;4449545;32;20265;-51
2021/10/09 14:02:46;;;;;;;14.13;9.20;;;;;;;;;;4436141;32;20280;-51
2021/10/09 14:05:11;;;;;;;16.40;9.50;;;;;;;;;;4437671;32;20284;-51
2021/10/09 14:07:37;;;;;;;21.20;10.47;;;;;;;;;;4448392;32;20200;-51
2021/10/09 14:10:02;;;;;;;15.83;9.43;;;;;;;;;;4449497;32;20680;-51
2021/10/09 14:12:28;;;;;;;12.77;8.43;;;;;;;;;;4448594;32;20233;-51
2021/10/09 14:14:53;;;;;;;17.67;9.97;;;;;;;;;;4449278;32;20375;-52
2021/10/09 14:17:19;;;;;;;14.43;7.97;;;;;;;;;;4448790;32;20205;-51
2021/10/09 14:19:44;;;;;;;9.97;6.23;;;;;;;;;;4448846;32;20519;-51
2021/10/09 14:22:09;;;;;;;11.67;7.20;;;;;;;;;;4448817;32;20239;-51
2021/10/09 14:24:35;;;;;;;14.60;7.87;;;;;;;;;;4448535;32;20307;-52
2021/10/09 14:27:00;;;;;;;13.30;7.83;;;;;;;;;;4447769;32;20224;-51
2021/10/09 14:29:26;;;;;;;12.83;8.40;;;;;;;;;;4447633;32;20317;-51
2021/10/09 14:31:51;;;;;;;17.17;10.50;;;;;;;;;;4448794;32;20238;-51
2021/10/09 14:34:16;;;;;;;16.50;11.00;;;;;;;;;;4448423;32;20636;-51
2021/10/09 14:36:42;;;;;;;21.97;11.80;;;;;;;;;;4447714;32;20234;-51
2021/10/09 14:39:09;;;;;;;18.60;11.57;;;;;;;;;;4447784;32;20287;-51
2021/10/09 14:41:34;;;;;;;17.43;11.70;;;;;;;;;;4448525;32;20295;-51
2021/10/09 14:43:59;;;;;;;14.07;9.27;;;;;;;;;;4448421;32;20348;-51
2021/10/09 14:49:11;;;;;;;12.87;8.40;;;;;;;;;;4448419;32;20249;-51
2021/10/09 14:51:49;;;;;;;15.60;8.30;;;;;;;;;;4448716;32;20231;-60
2021/10/09 15:18:36;;;;;;;12.40;7.43;;;;;;;;;;4449836;32;20208;-51
2021/10/09 15:21:01;;;;;;;14.17;10.20;;;;;;;;;;4450707;32;20224;-51
2021/10/09 15:23:28;;;;;;;17.90;11.10;;;;;;;;;;4450919;32;20703;-51
2021/10/09 15:25:54;;;;;;;21.43;9.80;;;;;;;;;;4451126;32;20254;-51
2021/10/09 15:28:20;;;;;;;15.67;6.87;;;;;;;;;;4451198;32;20287;-52
2021/10/09 15:30:46;;;;;;;10.43;6.40;;;;;;;;;;4450976;32;20248;-51
2021/10/09 15:33:12;;;;;;;8.80;5.63;;;;;;;;;;4448546;32;20325;-52
2021/10/09 15:35:38;;;;;;;14.87;4.93;;;;;;;;;;4450952;32;20225;-51
2021/10/09 15:38:07;;;;;;;9.60;5.70;;;;;;;;;;4450835;32;20324;-53
2021/10/09 15:40:33;;;;;;;12.43;6.83;;;;;;;;;;4450863;32;20615;-51
2021/10/09 15:42:59;;;;;;;6.93;4.37;;;;;;;;;;4449717;32;20231;-51
2021/10/09 15:45:25;;;;;;;6.90;4.33;;;;;;;;;;4448731;32;20666;-51
2021/10/09 15:47:52;;;;;;;5.87;4.07;;;;;;;;;;4449946;32;20263;-51
2021/10/09 15:50:20;;;;;;;14.57;6.27;;;;;;;;;;4450042;32;20244;-51
2021/10/09 15:52:46;;;;;;;11.30;8.00;;;;;;;;;;4450305;32;20565;-50
2021/10/09 15:55:12;;;;;;;16.87;9.40;;;;;;;;;;4450389;32;20264;-51
2021/10/09 15:57:37;;;;;;;15.43;8.03;;;;;;;;;;4449991;32;20212;-51
2021/10/09 16:00:08;;;;;;;13.50;7.10;;;;;;;;;;4449286;32;20221;-51
2021/10/09 16:02:34;;;;;;;9.93;5.60;;;;;;;;;;4448048;32;20307;-50
2021/10/09 16:05:00;;;;;;;17.03;8.17;;;;;;;;;;4450429;32;20220;-51
2021/10/09 16:07:26;;;;;;;19.87;10.07;;;;;;;;;;4449964;32;20670;-51
2021/10/09 16:09:51;;;;;;;27.20;13.10;;;;;;;;;;4450175;32;20264;-51
2021/10/09 16:12:17;;;;;;;28.43;13.90;;;;;;;;;;4449572;32;20564;-50
2021/10/09 16:14:43;;;;;;;29.33;16.63;;;;;;;;;;4450272;32;20284;-51
2021/10/09 16:17:23;;;;;;;40.43;18.97;;;;;;;;;;4449865;32;20282;-51
2021/10/09 16:19:49;;;;;;;33.73;18.23;;;;;;;;;;4450062;32;20291;-51
2021/10/09 16:22:15;;;;;;;28.80;17.03;;;;;;;;;;4448872;32;20415;-52
2021/10/09 16:24:40;;;;;;;36.10;20.37;;;;;;;;;;4450156;32;20224;-50
2021/10/09 16:27:06;;;;;;;38.50;20.77;;;;;;;;;;4449374;32;20560;-51
2021/10/09 16:29:31;;;;;;;33.73;19.40;;;;;;;;;;4449335;32;20232;-51
2021/10/09 16:31:57;;;;;;;29.80;18.07;;;;;;;;;;4449371;32;20188;-49
2021/10/09 16:34:22;;;;;;;21.40;13.83;;;;;;;;;;4449451;32;20287;-50
2021/10/09 16:36:50;;;;;;;34.87;18.17;;;;;;;;;;4449943;32;20244;-51
2021/10/09 16:39:15;;;;;;;34.83;18.30;;;;;;;;;;4449231;32;20217;-52
2021/10/09 16:41:41;;;;;;;33.93;19.90;;;;;;;;;;4449611;32;20268;-49
2021/10/09 16:44:06;;;;;;;32.67;21.30;;;;;;;;;;4448370;32;20288;-49
2021/10/09 16:46:35;;;;;;;32.83;19.47;;;;;;;;;;4449393;32;20240;-50
2021/10/09 16:49:00;;;;;;;32.57;17.97;;;;;;;;;;4449543;32;20231;-52
2021/10/09 16:51:27;;;;;;;30.87;18.57;;;;;;;;;;4448897;32;20221;-51
2021/10/09 16:53:52;;;;;;;20.60;12.37;;;;;;;;;;4449345;32;20291;-51
2021/10/09 16:56:18;;;;;;;20.90;13.50;;;;;;;;;;4449379;32;20244;-50
2021/10/09 16:58:44;;;;;;;13.77;8.70;;;;;;;;;;4450391;32;20360;-51
2021/10/09 17:01:10;;;;;;;25.63;11.83;;;;;;;;;;4449074;32;20240;-50
2021/10/09 17:03:35;;;;;;;12.30;7.20;;;;;;;;;;4449103;32;20301;-50
2021/10/09 17:06:01;;;;;;;17.13;7.70;;;;;;;;;;4449627;32;20268;-51
2021/10/09 17:08:27;;;;;;;21.60;10.30;;;;;;;;;;4448961;32;20605;-52
2021/10/09 17:10:52;;;;;;;19.67;11.23;;;;;;;;;;4449503;32;20224;-50
2021/10/09 17:13:18;;;;;;;19.50;11.67;;;;;;;;;;4447707;32;20337;-51